createdAt,value
2023-01-15T00:00:12.260Z,97
2023-01-15T00:01:22.377Z,97
2023-01-15T00:02:32.504Z,97.4
2023-01-15T00:03:42.626Z,97.3
2023-01-15T00:04:52.735Z,96.8
2023-01-15T00:06:02.852Z,97
2023-01-15T00:07:12.974Z,96.9
2023-01-15T00:08:23.096Z,96.9
2023-01-15T00:09:33.217Z,97.3
2023-01-15T00:10:43.315Z,96.8
2023-01-15T00:11:53.455Z,96.9
2023-01-15T00:13:03.561Z,97
2023-01-15T00:14:13.679Z,96.7
2023-01-15T00:15:22.812Z,96.8
2023-01-15T00:16:32.935Z,96.8
2023-01-15T00:17:43.048Z,96.6
2023-01-15T00:18:53.177Z,97.1
2023-01-15T00:20:03.295Z,96.7
2023-01-15T00:21:13.402Z,97
2023-01-15T00:22:23.519Z,96.9
2023-01-15T00:23:33.651Z,97.2
2023-01-15T00:24:43.772Z,97.4
2023-01-15T00:25:53.868Z,97.3
2023-01-15T00:27:04.002Z,96.6
2023-01-15T00:28:14.119Z,96.8
2023-01-15T00:29:24.227Z,96.6
2023-01-15T00:30:34.460Z,97
2023-01-15T00:31:44.589Z,97
2023-01-15T00:32:54.709Z,96.9
2023-01-15T00:34:04.833Z,97.1
2023-01-15T00:36:25.070Z,97.2
2023-01-15T00:37:35.183Z,97.1
2023-01-15T00:38:45.299Z,97.2
2023-01-15T00:39:55.407Z,97.5
2023-01-15T00:41:05.540Z,97.4
2023-01-15T00:42:15.659Z,97.8
2023-01-15T00:43:25.767Z,97.9
2023-01-15T00:44:35.890Z,98
2023-01-15T00:45:45.024Z,97.6
2023-01-15T00:46:55.143Z,97.5
2023-01-15T00:48:05.245Z,97.5
2023-01-15T00:49:15.369Z,97.6
2023-01-15T00:50:25.490Z,97.5
2023-01-15T00:51:35.616Z,97.6
2023-01-15T00:52:45.726Z,97.2
2023-01-15T00:53:55.840Z,97.4
2023-01-15T00:55:05.957Z,97
2023-01-15T00:57:26.205Z,96.9
2023-01-15T00:58:36.310Z,97
2023-01-15T00:59:46.431Z,97.4
2023-01-15T01:00:56.675Z,97.4
2023-01-15T01:02:06.799Z,97.4
2023-01-15T01:03:16.916Z,97.2
2023-01-15T01:04:27.020Z,97.1
2023-01-15T01:05:37.137Z,97.2
2023-01-15T01:06:47.265Z,96.7
2023-01-15T01:07:57.382Z,96.8
2023-01-15T01:09:07.493Z,96.8
2023-01-15T01:10:17.622Z,96.8
2023-01-15T01:11:27.739Z,97
2023-01-15T01:12:37.844Z,96.8
2023-01-15T01:13:47.973Z,96.8
2023-01-15T01:14:58.089Z,96.7
2023-01-15T01:16:08.339Z,96
2023-01-15T01:17:18.444Z,96.7
2023-01-15T01:18:28.568Z,96.5
2023-01-15T01:19:38.677Z,96.8
2023-01-15T01:20:48.796Z,96.7
2023-01-15T01:21:58.917Z,96.4
2023-01-15T01:23:09.031Z,96.7
2023-01-15T01:24:19.150Z,97.1
2023-01-15T01:25:29.265Z,97.2
2023-01-15T01:26:39.388Z,97.1
2023-01-15T01:27:49.516Z,96.5
2023-01-15T01:28:59.630Z,96.8
2023-01-15T01:30:09.739Z,96.7
2023-01-15T01:32:30.112Z,97.2
2023-01-15T01:33:40.228Z,96.4
2023-01-15T01:34:50.348Z,96.7
2023-01-15T01:36:00.450Z,96.8
2023-01-15T01:37:10.582Z,96.8
2023-01-15T01:38:20.687Z,96.7
2023-01-15T01:39:30.812Z,96.8
2023-01-15T01:40:40.929Z,96.8
2023-01-15T01:41:51.056Z,96.8
2023-01-15T01:43:01.162Z,97.1
2023-01-15T01:44:11.282Z,97.3
2023-01-15T01:45:21.404Z,97.3
2023-01-15T01:46:30.534Z,97.2
2023-01-15T01:47:40.905Z,97
2023-01-15T01:48:50.774Z,96.1
2023-01-15T01:50:00.900Z,95.9
2023-01-15T01:51:11.001Z,94.9
2023-01-15T01:52:21.124Z,94.7
2023-01-15T01:53:31.249Z,94.2
2023-01-15T01:54:41.369Z,93.7
2023-01-15T01:55:51.478Z,93.7
2023-01-15T01:57:01.597Z,93.2
2023-01-15T01:58:11.709Z,93.5
2023-01-15T01:59:21.832Z,93
2023-01-15T02:00:31.958Z,93.3
2023-01-15T02:01:42.195Z,93.3
2023-01-15T02:02:52.305Z,93
2023-01-15T02:04:02.423Z,93.3
2023-01-15T02:05:12.546Z,93.3
2023-01-15T02:06:22.649Z,92.9
2023-01-15T02:07:32.789Z,93.2
2023-01-15T02:08:42.896Z,93.5
2023-01-15T02:09:53.014Z,93.1
2023-01-15T02:11:03.139Z,93.3
2023-01-15T02:12:13.241Z,93
2023-01-15T02:13:23.363Z,93.1
2023-01-15T02:14:33.471Z,93.6
2023-01-15T02:15:43.607Z,93.6
2023-01-15T02:16:52.747Z,93.1
2023-01-15T02:18:02.000Z,92.5
2023-01-15T02:19:12.976Z,93
2023-01-15T02:20:23.077Z,92.4
2023-01-15T02:21:33.209Z,92.3
2023-01-15T02:22:43.331Z,92
2023-01-15T02:23:53.444Z,91.7
2023-01-15T02:25:03.571Z,92.2
2023-01-15T02:26:13.695Z,91.6
2023-01-15T02:27:23.797Z,91.2
2023-01-15T02:28:33.919Z,91.5
2023-01-15T02:29:44.038Z,91.3
2023-01-15T02:30:54.162Z,91.1
2023-01-15T02:32:04.401Z,91.2
2023-01-15T02:33:14.508Z,91.6
2023-01-15T02:34:24.642Z,90.2
2023-01-15T02:35:34.736Z,90.8
2023-01-15T02:36:44.000Z,91.7
2023-01-15T02:37:54.988Z,91
2023-01-15T02:39:05.098Z,90.6
2023-01-15T02:40:15.222Z,91
2023-01-15T02:41:25.343Z,90.7
2023-01-15T02:42:35.454Z,90.5
2023-01-15T02:43:45.568Z,90.7
2023-01-15T02:44:55.692Z,90.7
2023-01-15T02:46:05.815Z,90.6
2023-01-15T02:47:14.929Z,90.3
2023-01-15T02:48:25.058Z,90.1
2023-01-15T02:49:35.434Z,90.5
2023-01-15T02:50:45.281Z,90.2
2023-01-15T02:51:55.413Z,90.3
2023-01-15T02:53:05.540Z,90.3
2023-01-15T02:54:14.669Z,90.1
2023-01-15T02:55:24.787Z,90.4
2023-01-15T02:56:34.911Z,89.9
2023-01-15T02:57:45.010Z,90.4
2023-01-15T02:58:55.142Z,90
2023-01-15T03:00:05.264Z,90.3
2023-01-15T03:01:15.390Z,89.6
2023-01-15T03:02:25.505Z,89.9
2023-01-15T03:03:35.611Z,89.8
2023-01-15T03:04:45.731Z,89.2
2023-01-15T03:05:55.856Z,89.8
2023-01-15T03:07:05.970Z,89.8
2023-01-15T03:08:16.098Z,89.5
2023-01-15T03:09:25.227Z,89.3
2023-01-15T03:10:35.347Z,89
2023-01-15T03:11:45.465Z,89.4
2023-01-15T03:12:55.571Z,89.9
2023-01-15T03:14:05.690Z,89.5
2023-01-15T03:15:15.819Z,89.3
2023-01-15T03:16:25.931Z,90.1
2023-01-15T03:17:36.043Z,89.1
2023-01-15T03:18:46.170Z,89.4
2023-01-15T03:19:56.271Z,89.2
2023-01-15T03:21:06.409Z,89
2023-01-15T03:22:16.527Z,89.1
2023-01-15T03:24:36.753Z,89.7
2023-01-15T03:25:47.008Z,89.1
2023-01-15T03:26:57.110Z,89.2
2023-01-15T03:28:07.230Z,89.5
2023-01-15T03:29:17.354Z,90.2
2023-01-15T03:30:27.471Z,89.8
2023-01-15T03:31:37.594Z,89.9
2023-01-15T03:32:47.700Z,90.3
2023-01-15T03:33:57.823Z,90.1
2023-01-15T03:35:07.944Z,90.5
2023-01-15T03:36:18.069Z,89.8
2023-01-15T03:37:28.173Z,90.4
2023-01-15T03:38:38.290Z,90.2
2023-01-15T03:39:48.397Z,90.1
2023-01-15T03:40:57.546Z,90
2023-01-15T03:42:07.669Z,90.1
2023-01-15T03:43:17.793Z,90.2
2023-01-15T03:44:27.903Z,90.1
2023-01-15T03:45:38.029Z,90.2
2023-01-15T03:46:48.134Z,90.4
2023-01-15T03:47:58.257Z,90.5
2023-01-15T03:49:08.377Z,90.3
2023-01-15T03:50:18.499Z,89.9
2023-01-15T03:51:28.603Z,90.1
2023-01-15T03:52:38.723Z,90.2
2023-01-15T03:53:48.844Z,90.1
2023-01-15T03:54:58.963Z,90
2023-01-15T03:56:09.204Z,90.2
2023-01-15T03:57:19.328Z,90.5
2023-01-15T03:59:39.561Z,89.8
2023-01-15T04:00:49.668Z,89.9
2023-01-15T04:01:59.776Z,90.1
2023-01-15T04:03:09.897Z,90.3
2023-01-15T04:04:20.020Z,90.2
2023-01-15T04:05:30.145Z,90
2023-01-15T04:06:40.266Z,90.3
2023-01-15T04:07:50.381Z,90.3
2023-01-15T04:09:00.486Z,90.2
2023-01-15T04:10:10.610Z,90.1
2023-01-15T04:11:19.743Z,90.1
2023-01-15T04:12:29.871Z,90
2023-01-15T04:13:39.991Z,90.3
2023-01-15T04:14:50.098Z,90.1
2023-01-15T04:16:00.209Z,90.7
2023-01-15T04:17:10.327Z,90.5
2023-01-15T04:18:20.448Z,90.5
2023-01-15T04:19:30.571Z,90.7
2023-01-15T04:20:40.695Z,90.4
2023-01-15T04:21:50.813Z,90.9
2023-01-15T04:23:00.938Z,90.3
2023-01-15T04:24:11.039Z,90.9
2023-01-15T04:25:21.178Z,90.8
2023-01-15T04:26:31.403Z,91
2023-01-15T04:27:41.513Z,91.1
2023-01-15T04:28:51.651Z,91
2023-01-15T04:30:01.762Z,91.2
2023-01-15T04:31:11.884Z,91.4
2023-01-15T04:32:21.979Z,91.2
2023-01-15T04:33:32.109Z,91.4
2023-01-15T04:34:42.218Z,91.3
2023-01-15T04:35:52.348Z,91.3
2023-01-15T04:37:02.463Z,91.4
2023-01-15T04:38:12.584Z,91.2
2023-01-15T04:39:22.704Z,91.3
2023-01-15T04:40:32.830Z,91.2
2023-01-15T04:41:41.960Z,91.3
2023-01-15T04:42:52.063Z,91.5
2023-01-15T04:44:02.186Z,91.7
2023-01-15T04:45:12.303Z,91.6
2023-01-15T04:46:22.427Z,91.6
2023-01-15T04:47:32.549Z,91.7
2023-01-15T04:48:42.661Z,91.8
2023-01-15T04:49:52.775Z,91.9
2023-01-15T04:51:02.900Z,91.6
2023-01-15T04:52:13.006Z,91.7
2023-01-15T04:53:23.131Z,91.7
2023-01-15T04:54:33.264Z,91.7
2023-01-15T04:55:43.367Z,91.7
2023-01-15T04:56:53.605Z,91.7
2023-01-15T04:58:03.725Z,91.5
2023-01-15T04:59:13.849Z,91.7
2023-01-15T05:00:23.957Z,91.4
2023-01-15T05:01:34.077Z,91.3
2023-01-15T05:02:44.205Z,91.4
2023-01-15T05:03:54.323Z,91.5
2023-01-15T05:05:04.442Z,91.5
2023-01-15T05:06:14.549Z,91.7
2023-01-15T05:07:24.668Z,91.4
2023-01-15T05:08:34.796Z,91.5
2023-01-15T05:09:44.914Z,91.4
2023-01-15T05:10:55.022Z,91.5
2023-01-15T05:12:04.170Z,91.6
2023-01-15T05:13:14.277Z,91.8
2023-01-15T05:14:24.398Z,91.8
2023-01-15T05:15:34.515Z,91.5
2023-01-15T05:16:44.639Z,91.6
2023-01-15T05:17:54.741Z,91.6
2023-01-15T05:19:04.866Z,91.7
2023-01-15T05:20:14.991Z,91.7
2023-01-15T05:21:25.111Z,91.9
2023-01-15T05:22:35.235Z,91.6
2023-01-15T05:23:45.339Z,91.7
2023-01-15T05:24:55.457Z,91.6
2023-01-15T05:26:05.589Z,91.6
2023-01-15T05:27:15.811Z,91.7
2023-01-15T05:28:25.948Z,92
2023-01-15T05:29:36.053Z,91.9
2023-01-15T05:30:46.162Z,91.7
2023-01-15T05:31:56.289Z,91.7
2023-01-15T05:33:06.404Z,91.7
2023-01-15T05:34:16.521Z,91.8
2023-01-15T05:35:26.639Z,91.9
2023-01-15T05:36:36.760Z,91.8
2023-01-15T05:37:46.863Z,91.9
2023-01-15T05:38:56.987Z,91.8
2023-01-15T05:40:07.103Z,91.7
2023-01-15T05:41:17.223Z,91.5
2023-01-15T05:42:26.364Z,91.4
2023-01-15T05:43:36.468Z,91
2023-01-15T05:44:46.589Z,91.5
2023-01-15T05:45:56.715Z,91.5
2023-01-15T05:47:06.826Z,91.7
2023-01-15T05:48:16.951Z,91.4
2023-01-15T05:49:27.070Z,91.3
2023-01-15T05:50:37.190Z,91.6
2023-01-15T05:51:47.295Z,91.6
2023-01-15T05:52:57.416Z,91
2023-01-15T05:54:07.542Z,91
2023-01-15T05:55:17.910Z,91.2
2023-01-15T05:56:27.789Z,90.9
2023-01-15T05:57:38.017Z,90.5
2023-01-15T05:58:48.126Z,90.8
2023-01-15T05:59:58.245Z,90.7
2023-01-15T06:01:08.371Z,90.8
2023-01-15T06:02:18.503Z,90.4
2023-01-15T06:03:28.607Z,90.4
2023-01-15T06:05:48.855Z,90.9
2023-01-15T06:06:58.962Z,90.8
2023-01-15T06:08:09.071Z,90.3
2023-01-15T06:09:19.195Z,90.9
2023-01-15T06:10:29.303Z,90.8
2023-01-15T06:11:39.439Z,90.7
2023-01-15T06:12:48.563Z,90.7
2023-01-15T06:13:58.697Z,90.8
2023-01-15T06:15:08.793Z,90.3
2023-01-15T06:16:18.935Z,90.3
2023-01-15T06:17:29.044Z,90.4
2023-01-15T06:18:39.174Z,90.4
2023-01-15T06:19:49.279Z,90.2
2023-01-15T06:20:59.386Z,90.2
2023-01-15T06:22:09.510Z,90.2
2023-01-15T06:23:19.625Z,89.9
2023-01-15T06:24:29.760Z,89.9
2023-01-15T06:25:39.872Z,89.2
2023-01-15T06:26:49.996Z,89
2023-01-15T06:28:00.212Z,89
2023-01-15T06:29:10.338Z,89
2023-01-15T06:30:20.450Z,88.9
2023-01-15T06:31:30.578Z,89
2023-01-15T06:32:40.704Z,88.8
2023-01-15T06:33:50.805Z,89.3
2023-01-15T06:35:00.946Z,89.3
2023-01-15T06:36:11.053Z,89.1
2023-01-15T06:37:21.184Z,89.2
2023-01-15T06:38:31.285Z,89
2023-01-15T06:39:41.412Z,88.9
2023-01-15T06:40:51.534Z,88.8
2023-01-15T06:42:01.645Z,88.8
2023-01-15T06:43:10.773Z,88.7
2023-01-15T06:44:20.895Z,88.2
2023-01-15T06:45:31.001Z,87.8
2023-01-15T06:46:41.142Z,87.6
2023-01-15T06:47:51.234Z,87.7
2023-01-15T06:49:01.503Z,87.6
2023-01-15T06:50:11.596Z,87.8
2023-01-15T06:51:21.737Z,87.5
2023-01-15T06:52:31.832Z,87.2
2023-01-15T06:53:41.960Z,87.4
2023-01-15T06:54:52.076Z,87.5
2023-01-15T06:56:02.200Z,87.5
2023-01-15T06:57:12.322Z,87.4
2023-01-15T06:58:22.436Z,87.8
2023-01-15T06:59:32.547Z,87.4
2023-01-15T07:00:42.685Z,87.4
2023-01-15T07:01:52.796Z,87.7
2023-01-15T07:03:02.903Z,87.9
2023-01-15T07:04:12.055Z,88.1
2023-01-15T07:05:22.157Z,88.3
2023-01-15T07:06:32.280Z,88.2
2023-01-15T07:07:42.400Z,88
2023-01-15T07:08:52.521Z,87.8
2023-01-15T07:10:02.640Z,88
2023-01-15T07:11:12.754Z,88.2
2023-01-15T07:12:22.881Z,88.2
2023-01-15T07:13:32.974Z,88.6
2023-01-15T07:14:43.100Z,88.5
2023-01-15T07:15:53.217Z,88
2023-01-15T07:17:03.346Z,88
2023-01-15T07:18:13.469Z,87.8
2023-01-15T07:19:23.698Z,88
2023-01-15T07:20:33.806Z,88
2023-01-15T07:21:43.943Z,87.8
2023-01-15T07:22:54.063Z,88
2023-01-15T07:24:04.183Z,88
2023-01-15T07:25:14.281Z,88
2023-01-15T07:26:24.404Z,88
2023-01-15T07:27:34.509Z,88.3
2023-01-15T07:28:44.000Z,88.6
2023-01-15T07:29:54.761Z,88.5
2023-01-15T07:31:04.888Z,88.4
2023-01-15T07:32:15.009Z,88.4
2023-01-15T07:33:25.126Z,88.5
2023-01-15T07:34:34.256Z,88.4
2023-01-15T07:35:44.364Z,88.3
2023-01-15T07:36:54.478Z,88.4
2023-01-15T07:38:04.607Z,88.6
2023-01-15T07:39:14.966Z,88.7
2023-01-15T07:40:24.851Z,88.5
2023-01-15T07:41:34.956Z,88.8
2023-01-15T07:42:45.077Z,88.8
2023-01-15T07:43:55.189Z,88.8
2023-01-15T07:45:05.306Z,89
2023-01-15T07:46:15.429Z,89.1
2023-01-15T07:47:25.556Z,89.3
2023-01-15T07:48:35.665Z,89.6
2023-01-15T07:49:45.903Z,89.5
2023-01-15T07:50:56.025Z,89.8
2023-01-15T07:52:06.142Z,89.6
2023-01-15T07:53:16.263Z,89.5
2023-01-15T07:54:26.381Z,89.5
2023-01-15T07:55:36.501Z,89.8
2023-01-15T07:56:46.606Z,90
2023-01-15T07:57:56.719Z,90.3
2023-01-15T07:59:06.858Z,90.3
2023-01-15T08:00:16.947Z,90.4
2023-01-15T08:01:27.083Z,90.6
2023-01-15T08:02:37.188Z,90.7
2023-01-15T08:03:47.317Z,90.6
2023-01-15T08:04:56.445Z,90.6
2023-01-15T08:06:06.580Z,90.7
2023-01-15T08:07:16.671Z,90.5
2023-01-15T08:08:26.814Z,90.5
2023-01-15T08:09:36.907Z,90.5
2023-01-15T08:10:47.052Z,90.5
2023-01-15T08:11:57.153Z,90.6
2023-01-15T08:13:07.286Z,90.6
2023-01-15T08:14:17.380Z,90.5
2023-01-15T08:15:27.515Z,90.6
2023-01-15T08:16:37.636Z,90.9
2023-01-15T08:17:47.745Z,90.7
2023-01-15T08:18:57.871Z,90.8
2023-01-15T08:20:08.101Z,90.7
2023-01-15T08:21:18.219Z,90.5
2023-01-15T08:22:28.330Z,90.6
2023-01-15T08:23:38.461Z,90.3
2023-01-15T08:24:48.585Z,90.2
2023-01-15T08:25:58.702Z,90
2023-01-15T08:27:08.816Z,90
2023-01-15T08:28:18.945Z,89.8
2023-01-15T08:29:29.064Z,89.6
2023-01-15T08:30:39.153Z,89.5
2023-01-15T08:32:59.403Z,89.3
2023-01-15T08:34:09.527Z,89.3
2023-01-15T08:35:18.653Z,89.3
2023-01-15T08:36:28.769Z,89
2023-01-15T08:37:38.893Z,89.1
2023-01-15T08:38:49.021Z,89
2023-01-15T08:39:59.112Z,88.7
2023-01-15T08:41:09.228Z,88.7
2023-01-15T08:42:19.353Z,88.6
2023-01-15T08:43:29.477Z,88.8
2023-01-15T08:44:39.605Z,88.7
2023-01-15T08:45:49.728Z,89.1
2023-01-15T08:46:59.830Z,89
2023-01-15T08:49:20.083Z,88.9
2023-01-15T08:50:30.322Z,88.7
2023-01-15T08:51:40.437Z,88.9
2023-01-15T08:52:50.556Z,88.9
2023-01-15T08:54:00.662Z,88.9
2023-01-15T08:55:10.782Z,88.7
2023-01-15T08:56:20.907Z,88.8
2023-01-15T08:57:31.032Z,88.9
2023-01-15T08:58:41.151Z,89
2023-01-15T08:59:51.258Z,88.7
2023-01-15T09:01:01.377Z,88.9
2023-01-15T09:02:11.505Z,89.1
2023-01-15T09:03:21.624Z,89.1
2023-01-15T09:04:31.728Z,88.9
2023-01-15T09:05:40.865Z,89
2023-01-15T09:06:50.964Z,88.8
2023-01-15T09:08:01.083Z,88.7
2023-01-15T09:09:11.220Z,88.3
2023-01-15T09:10:21.322Z,88.3
2023-01-15T09:11:31.447Z,88.4
2023-01-15T09:12:41.566Z,88
2023-01-15T09:13:51.673Z,88.2
2023-01-15T09:15:01.808Z,88
2023-01-15T09:16:12.177Z,87.7
2023-01-15T09:17:22.027Z,87.6
2023-01-15T09:18:32.162Z,87.6
2023-01-15T09:19:42.289Z,87.8
2023-01-15T09:20:52.525Z,87.6
2023-01-15T09:22:02.634Z,87.5
2023-01-15T09:23:12.754Z,87.3
2023-01-15T09:24:22.857Z,87.5
2023-01-15T09:25:32.986Z,87.2
2023-01-15T09:26:43.092Z,87.2
2023-01-15T09:27:53.231Z,87
2023-01-15T09:29:03.350Z,86.8
2023-01-15T09:30:13.472Z,86.6
2023-01-15T09:31:23.578Z,86.4
2023-01-15T09:32:33.698Z,86.4
2023-01-15T09:33:43.825Z,85.7
2023-01-15T09:34:53.937Z,85.8
2023-01-15T09:36:04.165Z,85.9
2023-01-15T09:37:14.303Z,85.8
2023-01-15T09:38:24.389Z,85.7
2023-01-15T09:39:34.532Z,85.3
2023-01-15T09:40:44.639Z,84.9
2023-01-15T09:41:54.773Z,85.6
2023-01-15T09:43:04.865Z,85
2023-01-15T09:44:15.248Z,85.3
2023-01-15T09:45:25.119Z,85
2023-01-15T09:46:35.242Z,85.1
2023-01-15T09:47:45.361Z,85.2
2023-01-15T09:48:55.470Z,84.8
2023-01-15T09:50:05.586Z,84.6
2023-01-15T09:51:15.829Z,84.7
2023-01-15T09:52:25.951Z,84.7
2023-01-15T09:53:36.077Z,84.6
2023-01-15T09:54:46.190Z,84
2023-01-15T09:55:56.312Z,83.6
2023-01-15T09:57:06.416Z,83.8
2023-01-15T09:58:16.536Z,82.9
2023-01-15T09:59:26.647Z,83.2
2023-01-15T10:00:36.767Z,83.3
2023-01-15T10:01:46.874Z,83.8
2023-01-15T10:02:56.998Z,84.2
2023-01-15T10:04:07.126Z,83.8
2023-01-15T10:05:17.238Z,82.6
2023-01-15T10:06:26.388Z,82.7
2023-01-15T10:07:36.479Z,82.5
2023-01-15T10:08:46.615Z,82.5
2023-01-15T10:09:56.738Z,82.5
2023-01-15T10:11:06.858Z,82.6
2023-01-15T10:12:16.962Z,81.1
2023-01-15T10:13:27.089Z,82
2023-01-15T10:14:37.177Z,81.5
2023-01-15T10:15:47.335Z,81.3
2023-01-15T10:16:57.445Z,80.9
2023-01-15T10:18:07.523Z,79.6
2023-01-15T10:19:17.669Z,80.6
2023-01-15T10:20:27.797Z,80.5
2023-01-15T10:21:38.041Z,79.6
2023-01-15T10:22:48.150Z,79.3
2023-01-15T10:23:58.233Z,79.7
2023-01-15T10:25:08.381Z,79.1
2023-01-15T10:26:18.518Z,79
2023-01-15T10:27:28.617Z,78.9
2023-01-15T10:28:38.706Z,78.9
2023-01-15T10:29:48.831Z,79.5
2023-01-15T10:30:58.981Z,78.9
2023-01-15T10:32:09.057Z,78.5
2023-01-15T10:33:19.210Z,78.6
2023-01-15T10:34:29.318Z,78.5
2023-01-15T10:35:39.454Z,79.2
2023-01-15T10:36:48.561Z,80
2023-01-15T10:37:58.710Z,79.3
2023-01-15T10:39:08.820Z,79.9
2023-01-15T10:40:18.942Z,78.4
2023-01-15T10:41:29.034Z,78.8
2023-01-15T10:42:39.171Z,78.6
2023-01-15T10:43:48.323Z,78.5
2023-01-15T10:44:58.422Z,79
2023-01-15T10:46:08.544Z,78.8
2023-01-15T10:47:18.649Z,79.2
2023-01-15T10:48:28.786Z,79.9
2023-01-15T10:49:38.908Z,79.9
2023-01-15T10:50:49.021Z,79.7
2023-01-15T10:51:59.130Z,80.4
2023-01-15T10:53:09.259Z,79.8
2023-01-15T10:54:19.613Z,80.3
2023-01-15T10:55:29.494Z,80.2
2023-01-15T10:56:39.592Z,80.7
2023-01-15T10:57:49.730Z,81
2023-01-15T10:58:59.852Z,80.3
2023-01-15T11:00:08.985Z,81.1
2023-01-15T11:01:19.108Z,80
2023-01-15T11:02:29.222Z,80.4
2023-01-15T11:03:39.329Z,80.7
2023-01-15T11:04:49.454Z,81
2023-01-15T11:05:59.815Z,80.8
2023-01-15T11:07:09.692Z,80.2
2023-01-15T11:08:19.801Z,80.6
2023-01-15T11:09:29.927Z,80.2
2023-01-15T11:10:40.033Z,80.3
2023-01-15T11:11:50.401Z,80.6
2023-01-15T11:13:00.288Z,80.4
2023-01-15T11:14:10.391Z,80.6
2023-01-15T11:15:20.626Z,80.3
2023-01-15T11:16:30.993Z,80.6
2023-01-15T11:17:40.864Z,80.3
2023-01-15T11:18:50.986Z,80.1
2023-01-15T11:21:11.228Z,78.9
2023-01-15T11:22:21.323Z,79.5
2023-01-15T11:23:31.462Z,78.1
2023-01-15T11:24:41.585Z,77.8
2023-01-15T11:25:51.689Z,78.1
2023-01-15T11:27:01.814Z,77.5
2023-01-15T11:28:11.939Z,77.3
2023-01-15T11:29:22.054Z,77.3
2023-01-15T11:30:31.187Z,76.6
2023-01-15T11:31:41.311Z,75.2
2023-01-15T11:32:51.402Z,75.3
2023-01-15T11:35:11.640Z,74.8
2023-01-15T11:37:31.888Z,75
2023-01-15T11:38:42.165Z,74.9
2023-01-15T11:39:51.269Z,74.1
2023-01-15T11:41:01.402Z,74.8
2023-01-15T11:42:11.522Z,74.5
2023-01-15T11:43:21.651Z,73.4
2023-01-15T11:44:31.753Z,72.3
2023-01-15T11:45:41.857Z,72.4
2023-01-15T11:46:51.998Z,72.3
2023-01-15T11:48:02.110Z,73.4
2023-01-15T11:49:12.230Z,72.8
2023-01-15T11:50:22.354Z,71.1
2023-01-15T11:51:31.480Z,68.2
2023-01-15T11:52:41.734Z,68.5
2023-01-15T11:53:51.835Z,68.7
2023-01-15T11:55:01.981Z,68.8
2023-01-15T11:56:12.078Z,68
2023-01-15T11:57:22.208Z,69.3
2023-01-15T11:58:32.328Z,69.4
2023-01-15T11:59:42.449Z,69.6
2023-01-15T12:00:52.570Z,68.5
2023-01-15T12:02:02.675Z,69.3
2023-01-15T12:03:12.779Z,68.7
2023-01-15T12:04:22.904Z,67.4
2023-01-15T12:05:33.028Z,66.9
2023-01-15T12:06:43.149Z,67
2023-01-15T12:07:52.288Z,67.8
2023-01-15T12:09:02.415Z,68
2023-01-15T12:10:12.520Z,68.6
2023-01-15T12:11:22.643Z,68
2023-01-15T12:12:32.746Z,68.1
2023-01-15T12:13:42.887Z,68.1
2023-01-15T12:14:52.996Z,68.9
2023-01-15T12:16:03.118Z,68.5
2023-01-15T12:17:13.209Z,68.9
2023-01-15T12:18:23.345Z,68.4
2023-01-15T12:19:33.471Z,68
2023-01-15T12:20:43.566Z,68.2
2023-01-15T12:21:53.696Z,68.8
2023-01-15T12:23:03.815Z,68.9
2023-01-15T12:24:12.934Z,67.5
2023-01-15T12:25:23.074Z,67.6
2023-01-15T12:26:33.171Z,68.7
2023-01-15T12:27:43.293Z,68.2
2023-01-15T12:28:53.416Z,66.9
2023-01-15T12:30:03.536Z,68.2
2023-01-15T12:31:13.656Z,68.3
2023-01-15T12:32:23.761Z,67.7
2023-01-15T12:33:33.910Z,67.3
2023-01-15T12:34:44.019Z,67.6
2023-01-15T12:35:54.134Z,68.3
2023-01-15T12:37:04.255Z,68.2
2023-01-15T12:38:14.375Z,68.2
2023-01-15T12:39:24.614Z,69
2023-01-15T12:40:34.718Z,69.1
2023-01-15T12:41:44.842Z,68.6
2023-01-15T12:42:54.958Z,68.1
2023-01-15T12:45:15.175Z,68.4
2023-01-15T12:46:25.310Z,68.9
2023-01-15T12:47:35.433Z,67.3
2023-01-15T12:48:45.557Z,67.6
2023-01-15T12:49:55.680Z,68.1
2023-01-15T12:52:15.903Z,68.4
2023-01-15T12:53:26.022Z,67.5
2023-01-15T12:54:35.160Z,68.5
2023-01-15T12:55:45.283Z,68.9
2023-01-15T12:56:55.406Z,68.9
2023-01-15T12:58:05.522Z,68.4
2023-01-15T12:59:15.641Z,69.3
2023-01-15T13:00:25.747Z,67.8
2023-01-15T13:01:35.876Z,67.7
2023-01-15T13:02:45.979Z,67.7
2023-01-15T13:03:56.103Z,68.3
2023-01-15T13:05:06.224Z,68.3
2023-01-15T13:06:16.341Z,68.1
2023-01-15T13:07:26.452Z,68.5
2023-01-15T13:08:36.559Z,68
2023-01-15T13:09:46.822Z,67.4
2023-01-15T13:10:56.941Z,67.7
2023-01-15T13:12:07.046Z,67.5
2023-01-15T13:13:17.180Z,67.6
2023-01-15T13:14:27.286Z,67.3
2023-01-15T13:15:37.403Z,67.5
2023-01-15T13:16:47.528Z,67.7
2023-01-15T13:17:57.647Z,67.5
2023-01-15T13:19:07.752Z,67.5
2023-01-15T13:20:17.877Z,67.4
2023-01-15T13:21:27.999Z,67.8
2023-01-15T13:22:38.091Z,67.3
2023-01-15T13:23:48.214Z,67.8
2023-01-15T13:24:57.347Z,67.7
2023-01-15T13:26:07.480Z,68.3
2023-01-15T13:27:17.600Z,68.6
2023-01-15T13:28:27.724Z,68.6
2023-01-15T13:29:37.815Z,68.9
2023-01-15T13:30:47.948Z,69.8
2023-01-15T13:31:58.070Z,71
2023-01-15T13:33:08.189Z,70.8
2023-01-15T13:34:18.285Z,71.7
2023-01-15T13:35:28.408Z,76.7
2023-01-15T13:36:38.546Z,82.8
2023-01-15T13:37:48.661Z,88.4
2023-01-15T13:38:58.775Z,90.3
2023-01-15T13:40:09.015Z,92.1
2023-01-15T13:41:19.122Z,92.5
2023-01-15T13:42:29.267Z,92.2
2023-01-15T13:43:39.369Z,92.6
2023-01-15T13:44:49.490Z,92.6
2023-01-15T13:47:09.729Z,92.3
2023-01-15T13:48:19.838Z,92.7
2023-01-15T13:49:29.959Z,91.9
2023-01-15T13:50:40.086Z,91.5
2023-01-15T13:51:50.205Z,90.8
2023-01-15T13:53:00.329Z,90.7
2023-01-15T13:54:10.432Z,90
2023-01-15T13:55:19.573Z,89.6
2023-01-15T13:56:29.693Z,89.5
2023-01-15T13:57:39.817Z,89.5
2023-01-15T13:58:49.933Z,90
2023-01-15T14:00:00.037Z,90.3
2023-01-15T14:01:10.159Z,90.2
2023-01-15T14:02:20.275Z,90.8
2023-01-15T14:03:30.405Z,91
2023-01-15T14:04:40.503Z,91.1
2023-01-15T14:05:50.639Z,91.1
2023-01-15T14:07:00.760Z,91.2
2023-01-15T14:08:10.865Z,91.5
2023-01-15T14:09:20.984Z,91.3
2023-01-15T14:10:31.231Z,91
2023-01-15T14:11:41.347Z,90.7
2023-01-15T14:12:51.472Z,90.9
2023-01-15T14:14:01.579Z,90.6
2023-01-15T14:16:21.823Z,90.4
2023-01-15T14:17:31.947Z,90.2
2023-01-15T14:18:42.049Z,89.9
2023-01-15T14:19:52.150Z,90.2
2023-01-15T14:21:02.286Z,90.5
2023-01-15T14:22:12.411Z,89.8
2023-01-15T14:23:22.531Z,89.7
2023-01-15T14:24:32.642Z,89.1
2023-01-15T14:25:41.776Z,88.7
2023-01-15T14:26:51.902Z,88.3
2023-01-15T14:28:02.028Z,89.1
2023-01-15T14:29:12.130Z,88.1
2023-01-15T14:30:22.252Z,87.5
2023-01-15T14:32:42.496Z,88
2023-01-15T14:33:52.582Z,88.1
2023-01-15T14:35:02.725Z,88.1
2023-01-15T14:37:22.959Z,86.9
2023-01-15T14:38:33.230Z,86.9
2023-01-15T14:39:42.370Z,87.2
2023-01-15T14:40:52.476Z,87
2023-01-15T14:42:02.600Z,86.8
2023-01-15T14:43:12.709Z,86.6
2023-01-15T14:44:22.838Z,86.3
2023-01-15T14:45:32.961Z,86.8
2023-01-15T14:46:43.065Z,86
2023-01-15T14:47:53.190Z,85.6
2023-01-15T14:49:03.313Z,85.9
2023-01-15T14:50:13.435Z,85.6
2023-01-15T14:51:22.564Z,85.6
2023-01-15T14:52:32.804Z,85.3
2023-01-15T14:53:42.933Z,84.9
2023-01-15T14:54:53.037Z,84.6
2023-01-15T14:56:03.171Z,84.8
2023-01-15T14:57:13.286Z,85.1
2023-01-15T14:58:23.399Z,85.3
2023-01-15T14:59:33.528Z,84.8
2023-01-15T15:00:43.637Z,85.1
2023-01-15T15:01:53.748Z,85
2023-01-15T15:03:03.871Z,84.1
2023-01-15T15:04:14.001Z,84.5
2023-01-15T15:05:24.110Z,84.3
2023-01-15T15:06:34.226Z,83.8
2023-01-15T15:07:43.355Z,83.2
2023-01-15T15:08:53.477Z,82.9
2023-01-15T15:10:03.598Z,82.4
2023-01-15T15:11:13.718Z,82
2023-01-15T15:12:23.834Z,81.8
2023-01-15T15:13:33.953Z,81.3
2023-01-15T15:14:44.076Z,81
2023-01-15T15:15:54.194Z,80.1
2023-01-15T15:17:04.547Z,80.1
2023-01-15T15:19:24.521Z,79.1
2023-01-15T15:20:34.642Z,79.3
2023-01-15T15:21:44.787Z,77.9
2023-01-15T15:22:55.012Z,78
2023-01-15T15:24:05.132Z,77.7
2023-01-15T15:25:15.244Z,77.1
2023-01-15T15:26:25.347Z,77.1
2023-01-15T15:27:35.485Z,77.4
2023-01-15T15:28:45.577Z,76.9
2023-01-15T15:29:55.723Z,76.1
2023-01-15T15:31:05.840Z,75.6
2023-01-15T15:33:26.080Z,74.6
2023-01-15T15:34:36.203Z,74.6
2023-01-15T15:35:46.290Z,74.9
2023-01-15T15:36:56.426Z,74.9
2023-01-15T15:38:05.577Z,74.1
2023-01-15T15:39:15.682Z,74.5
2023-01-15T15:40:25.807Z,74.6
2023-01-15T15:41:35.895Z,73.9
2023-01-15T15:42:46.012Z,73.7
2023-01-15T15:43:56.137Z,73
2023-01-15T15:45:06.268Z,72.9
2023-01-15T15:46:16.389Z,73.3
2023-01-15T15:47:26.516Z,72.9
2023-01-15T15:48:36.623Z,72.9
2023-01-15T15:49:46.731Z,72.6
2023-01-15T15:50:56.834Z,72.4
2023-01-15T15:52:06.983Z,72.6
2023-01-15T15:53:17.231Z,72.8
2023-01-15T15:54:27.333Z,72.7
2023-01-15T15:55:37.428Z,73.1
2023-01-15T15:56:47.581Z,73.1
2023-01-15T15:57:57.689Z,73.3
2023-01-15T15:59:07.782Z,73.2
2023-01-15T16:00:17.928Z,73.5
2023-01-15T16:01:28.032Z,72.9